Umatilla, Oregon
Current Conditions -  °F | °C
As of 12:22 PM on Friday 31 Oct 2014 (Local Time) from KHRI Reporting Station
Light Rain Light Rain  
Wind Chill: 53°   Ceiling: 6000
Heat Index: 53°   Visibility: 4mi
Dew Point: 51°   Wind: 9mph
Humidity: 93%   Direction: 240°WSW
Pressure: 29.78"   Gusts: NA
Location:  45.92°N, 119.34°W
Report Text: KHRI 311922Z AUTO 24008KT 4SM -RA BR SCT004 SCT016 OVC060 12/11 A2978 RMK AO2 RAB13 P0000 T01170106
Loading
Personal Weather Stations






























Interactive Weather Map
Tropical Storm Tracking
New forecast layout! Learn more

10-Day Weather Forecast

Advertisements
Track Severe Weather on mobile